createdAt,value
2022-08-23T00:02:27.964Z,26.07
2022-08-23T00:05:07.604Z,26.07
2022-08-23T00:07:40.028Z,25.97
2022-08-23T00:10:11.488Z,26.02
2022-08-23T00:12:40.986Z,26.10
2022-08-23T00:15:11.658Z,26.08
2022-08-23T00:17:42.260Z,25.94
2022-08-23T00:20:17.389Z,25.81
2022-08-23T00:22:47.002Z,25.90
2022-08-23T00:25:17.148Z,25.88
2022-08-23T00:27:46.806Z,25.93
2022-08-23T00:30:16.618Z,25.96
2022-08-23T00:32:46.253Z,25.91
2022-08-23T00:35:23.719Z,25.89
2022-08-23T00:38:33.086Z,25.86
2022-08-23T00:40:47.218Z,25.81
2022-08-23T00:43:29.938Z,25.83
2022-08-23T00:46:15.011Z,25.84
2022-08-23T00:48:44.506Z,25.79
2022-08-23T00:51:19.012Z,25.77
2022-08-23T00:53:51.568Z,25.71
2022-08-23T00:56:22.638Z,25.65
2022-08-23T00:58:52.226Z,25.63
2022-08-23T01:01:21.813Z,25.64
2022-08-23T01:04:03.957Z,25.64
2022-08-23T01:06:39.899Z,25.59
2022-08-23T01:09:11.149Z,25.55
2022-08-23T01:11:42.768Z,25.51
2022-08-23T01:14:14.337Z,25.48
2022-08-23T01:16:45.662Z,25.44
2022-08-23T01:19:19.734Z,25.42
2022-08-23T01:21:54.371Z,25.39
2022-08-23T01:25:05.999Z,25.31
2022-08-23T01:27:15.971Z,25.25
2022-08-23T01:29:45.658Z,25.14
2022-08-23T01:32:15.209Z,25.15
2022-08-23T01:34:51.506Z,25.17
2022-08-23T01:37:21.183Z,25.13
2022-08-23T01:39:53.371Z,25.08
2022-08-23T01:42:22.964Z,25.04
2022-08-23T01:44:52.429Z,24.99
2022-08-23T01:47:21.878Z,24.99
2022-08-23T01:49:51.633Z,24.94
2022-08-23T01:52:21.376Z,24.82
2022-08-23T01:54:53.431Z,24.85
2022-08-23T01:57:22.968Z,24.84
2022-08-23T01:59:52.436Z,24.82
2022-08-23T02:02:21.896Z,24.83
2022-08-23T02:04:51.369Z,24.81
2022-08-23T02:07:20.883Z,24.79
2022-08-23T02:09:52.943Z,24.72
2022-08-23T02:12:22.390Z,24.70
2022-08-23T02:14:52.101Z,24.67
2022-08-23T02:17:22.471Z,24.62
2022-08-23T02:19:51.960Z,24.57
2022-08-23T02:22:21.447Z,24.49
2022-08-23T02:24:53.510Z,24.47
2022-08-23T02:27:23.098Z,24.45
2022-08-23T02:29:52.906Z,24.42
2022-08-23T02:32:22.382Z,24.38
2022-08-23T02:35:04.585Z,24.31
2022-08-23T02:37:35.517Z,24.35
2022-08-23T02:40:08.557Z,24.34
2022-08-23T02:42:38.131Z,24.32
2022-08-23T02:45:08.651Z,24.27
2022-08-23T02:47:38.235Z,24.23
2022-08-23T02:50:07.967Z,24.23
2022-08-23T02:52:37.511Z,24.22
2022-08-23T02:55:10.960Z,24.21
2022-08-23T02:57:40.760Z,24.20
2022-08-23T03:00:12.045Z,24.15
2022-08-23T03:02:41.682Z,24.09
2022-08-23T03:05:12.413Z,24.03
2022-08-23T03:07:41.989Z,24.02
2022-08-23T03:10:16.450Z,23.97
2022-08-23T03:12:45.982Z,23.92
2022-08-23T03:15:15.496Z,23.88
2022-08-23T03:17:44.986Z,23.87
2022-08-23T03:20:14.543Z,23.80
2022-08-23T03:22:48.231Z,23.79
2022-08-23T03:25:26.729Z,23.78
2022-08-23T03:27:56.249Z,23.75
2022-08-23T03:30:25.742Z,23.75
2022-08-23T03:32:55.233Z,23.76
2022-08-23T03:35:24.697Z,23.74
2022-08-23T03:37:55.329Z,23.70
2022-08-23T03:40:27.506Z,23.70
2022-08-23T03:42:56.945Z,23.66
2022-08-23T03:45:26.401Z,23.64
2022-08-23T03:47:55.883Z,23.59
2022-08-23T03:50:25.396Z,23.54
2022-08-23T03:52:54.832Z,23.48
2022-08-23T03:55:26.872Z,23.46
2022-08-23T03:57:56.392Z,23.44
2022-08-23T04:00:25.969Z,23.41
2022-08-23T04:02:55.427Z,23.41
2022-08-23T04:05:24.918Z,23.37
2022-08-23T04:07:55.158Z,23.38
2022-08-23T04:10:27.253Z,23.34
2022-08-23T04:12:56.704Z,23.29
2022-08-23T04:15:26.222Z,23.28
2022-08-23T04:17:55.682Z,23.23
2022-08-23T04:20:25.250Z,23.21
2022-08-23T04:22:54.784Z,23.21
2022-08-23T04:25:33.780Z,23.20
2022-08-23T04:28:05.072Z,23.19
2022-08-23T04:30:34.547Z,23.19
2022-08-23T04:33:09.784Z,23.19
2022-08-23T04:35:41.418Z,23.14
2022-08-23T04:38:24.125Z,23.12
2022-08-23T04:41:11.252Z,23.13
2022-08-23T04:43:41.246Z,23.10
2022-08-23T04:46:11.097Z,23.07
2022-08-23T04:48:40.658Z,23.07
2022-08-23T04:51:10.150Z,23.07
2022-08-23T04:53:39.637Z,23.12
2022-08-23T04:56:11.924Z,23.15
2022-08-23T04:58:41.417Z,23.16
2022-08-23T05:01:11.850Z,23.16
2022-08-23T05:03:41.527Z,23.17
2022-08-23T05:06:11.281Z,23.21
2022-08-23T05:08:40.828Z,23.22
2022-08-23T05:11:13.636Z,23.23
2022-08-23T05:13:43.073Z,23.26
2022-08-23T05:16:12.539Z,23.34
2022-08-23T05:18:41.997Z,23.39
2022-08-23T05:21:11.489Z,23.49
2022-08-23T05:23:40.944Z,23.57
2022-08-23T05:26:12.980Z,23.65
2022-08-23T05:28:43.851Z,23.72
2022-08-23T05:31:14.762Z,23.77
2022-08-23T05:33:44.181Z,23.85
2022-08-23T05:36:14.672Z,23.94
2022-08-23T05:38:44.196Z,23.97
2022-08-23T05:41:16.784Z,24.07
2022-08-23T05:43:47.167Z,24.18
2022-08-23T05:46:18.309Z,24.28
2022-08-23T05:48:51.709Z,24.34
2022-08-23T05:51:22.486Z,24.41
2022-08-23T05:53:52.710Z,24.54
2022-08-23T05:56:26.398Z,24.65
2022-08-23T05:58:59.673Z,24.71
2022-08-23T06:01:29.888Z,24.79
2022-08-23T06:04:01.402Z,24.90
2022-08-23T06:06:35.040Z,25.07
2022-08-23T06:09:07.508Z,25.14
2022-08-23T06:11:39.700Z,24.92
2022-08-23T06:14:10.030Z,25.18
2022-08-23T06:16:41.233Z,25.22
2022-08-23T06:19:11.172Z,25.22
2022-08-23T06:21:41.022Z,25.27
2022-08-23T06:24:10.900Z,25.14
2022-08-23T06:26:45.460Z,25.38
2022-08-23T06:29:19.310Z,25.74
2022-08-23T06:31:50.112Z,25.96
2022-08-23T06:34:21.946Z,25.96
2022-08-23T06:36:52.664Z,26.14
2022-08-23T06:39:22.895Z,26.15
2022-08-23T06:41:55.370Z,26.34
2022-08-23T06:44:25.049Z,26.39
2022-08-23T06:46:56.436Z,26.39
2022-08-23T06:49:26.144Z,26.62
2022-08-23T06:51:56.506Z,26.40
2022-08-23T06:54:29.181Z,26.55
2022-08-23T06:57:01.580Z,26.20
2022-08-23T06:59:31.853Z,25.13
2022-08-23T07:02:04.145Z,25.50
2022-08-23T07:04:34.729Z,25.82
2022-08-23T07:07:07.145Z,26.31
2022-08-23T07:09:40.498Z,26.47
2022-08-23T07:12:12.809Z,26.25
2022-08-23T07:14:42.546Z,25.68
2022-08-23T07:17:12.588Z,25.45
2022-08-23T07:19:44.081Z,26.05
2022-08-23T07:22:15.590Z,26.55
2022-08-23T07:24:45.917Z,27.00
2022-08-23T07:27:17.954Z,26.73
2022-08-23T07:29:47.476Z,27.10
2022-08-23T07:32:18.772Z,26.85
2022-08-23T07:34:48.365Z,26.73
2022-08-23T07:37:18.817Z,26.71
2022-08-23T07:39:48.450Z,26.90
2022-08-23T07:42:23.777Z,27.22
2022-08-23T07:44:54.295Z,27.65
2022-08-23T07:47:24.102Z,27.58
2022-08-23T07:49:53.619Z,28.00
2022-08-23T07:52:23.568Z,27.61
2022-08-23T07:54:53.141Z,27.80
2022-08-23T07:57:25.919Z,28.16
2022-08-23T07:59:55.466Z,28.57
2022-08-23T08:02:25.402Z,28.77
2022-08-23T08:04:54.997Z,28.86
2022-08-23T08:07:24.545Z,28.76
2022-08-23T08:09:54.097Z,28.33
2022-08-23T08:12:27.076Z,28.55
2022-08-23T08:14:56.728Z,29.12
2022-08-23T08:17:27.629Z,29.55
2022-08-23T08:19:57.426Z,29.01
2022-08-23T08:22:27.332Z,29.46
2022-08-23T08:24:56.906Z,29.83
2022-08-23T08:27:29.680Z,30.11
2022-08-23T08:30:02.850Z,30.10
2022-08-23T08:32:32.422Z,29.99
2022-08-23T08:35:02.481Z,29.71
2022-08-23T08:37:32.252Z,30.27
2022-08-23T08:40:01.951Z,30.49
2022-08-23T08:42:49.600Z,30.70
2022-08-23T08:45:19.879Z,30.58
2022-08-23T08:47:52.042Z,30.38
2022-08-23T08:50:24.174Z,30.22
2022-08-23T08:52:55.237Z,30.51
2022-08-23T08:55:28.522Z,30.22
2022-08-23T08:58:00.871Z,29.75
2022-08-23T09:00:32.470Z,29.87
2022-08-23T09:03:02.905Z,30.59
2022-08-23T09:05:36.140Z,30.49
2022-08-23T09:08:12.576Z,30.43
2022-08-23T09:10:53.215Z,30.94
2022-08-23T09:13:53.723Z,30.33
2022-08-23T09:16:30.215Z,30.34
2022-08-23T09:18:59.997Z,30.67
2022-08-23T09:21:29.630Z,31.01
2022-08-23T09:24:01.001Z,30.89
2022-08-23T09:26:32.684Z,30.51
2022-08-23T09:29:07.837Z,31.29
2022-08-23T09:31:42.773Z,31.95
2022-08-23T09:34:23.267Z,32.27
2022-08-23T09:36:53.153Z,32.51
2022-08-23T09:39:32.005Z,32.56
2022-08-23T09:42:02.144Z,32.52
2022-08-23T09:44:42.237Z,32.66
2022-08-23T09:47:15.087Z,32.88
2022-08-23T09:49:45.001Z,33.31
2022-08-23T09:52:22.109Z,33.19
2022-08-23T09:54:57.905Z,33.00
2022-08-23T09:57:28.870Z,32.50
2022-08-23T10:00:03.387Z,31.94
2022-08-23T10:02:35.361Z,32.11
2022-08-23T10:05:07.401Z,32.84
2022-08-23T10:07:43.028Z,32.77
2022-08-23T10:10:28.048Z,32.87
2022-08-23T10:12:59.129Z,33.32
2022-08-23T10:15:43.561Z,33.48
2022-08-23T10:18:16.493Z,33.49
2022-08-23T10:20:50.112Z,34.00
2022-08-23T10:23:23.738Z,34.30
2022-08-23T10:25:56.212Z,34.46
2022-08-23T10:28:45.590Z,34.11
2022-08-23T10:31:22.197Z,34.32
2022-08-23T10:33:54.983Z,34.84
2022-08-23T10:36:26.478Z,35.14
2022-08-23T10:38:59.708Z,35.24
2022-08-23T10:41:44.628Z,34.92
2022-08-23T10:44:24.769Z,34.42
2022-08-23T10:47:03.880Z,34.59
2022-08-23T10:49:33.439Z,34.38
2022-08-23T10:52:06.213Z,34.55
2022-08-23T10:54:46.509Z,34.77
2022-08-23T10:57:17.295Z,34.96
2022-08-23T10:59:47.097Z,34.55
2022-08-23T11:02:22.228Z,34.54
2022-08-23T11:04:54.830Z,34.20
2022-08-23T11:07:28.313Z,34.34
2022-08-23T11:10:16.359Z,34.64
2022-08-23T11:12:55.403Z,34.25
2022-08-23T11:15:30.086Z,34.25
2022-08-23T11:18:05.052Z,34.59
2022-08-23T11:21:03.158Z,34.02
2022-08-23T11:23:58.219Z,33.69
2022-08-23T11:27:06.351Z,33.49
2022-08-23T11:29:37.724Z,34.38
2022-08-23T11:32:20.570Z,34.32
2022-08-23T11:34:56.343Z,34.04
2022-08-23T11:37:27.214Z,33.78
2022-08-23T11:40:05.870Z,33.79
2022-08-23T11:42:53.776Z,33.37
2022-08-23T11:45:25.926Z,33.89
2022-08-23T11:48:06.133Z,34.28
2022-08-23T11:50:42.770Z,34.98
2022-08-23T11:53:24.319Z,34.79
2022-08-23T11:56:03.961Z,34.39
2022-08-23T11:58:35.751Z,34.59
2022-08-23T12:01:09.442Z,34.80
2022-08-23T12:03:58.627Z,35.17
2022-08-23T12:06:51.001Z,35.57
2022-08-23T12:09:51.110Z,34.51
2022-08-23T12:12:34.790Z,34.70
2022-08-23T12:15:09.200Z,35.20
2022-08-23T12:17:57.153Z,35.33
2022-08-23T12:20:33.388Z,35.12
2022-08-23T12:23:18.636Z,35.13
2022-08-23T12:25:48.466Z,35.66
2022-08-23T12:28:39.434Z,34.88
2022-08-23T12:31:15.834Z,35.08
2022-08-23T12:33:54.637Z,35.60
2022-08-23T12:36:26.626Z,35.39
2022-08-23T12:39:04.404Z,35.57
2022-08-23T12:41:35.088Z,35.97
2022-08-23T12:44:06.124Z,36.41
2022-08-23T12:46:39.529Z,36.39
2022-08-23T12:49:09.335Z,36.62
2022-08-23T12:51:44.429Z,36.41
2022-08-23T12:54:22.349Z,35.75
2022-08-23T12:56:52.862Z,35.87
2022-08-23T12:59:43.518Z,35.85
2022-08-23T13:02:13.469Z,35.48
2022-08-23T13:04:43.287Z,36.22
2022-08-23T13:07:15.163Z,36.36
2022-08-23T13:09:53.529Z,35.99
2022-08-23T13:12:24.610Z,34.99
2022-08-23T13:14:54.903Z,34.69
2022-08-23T13:17:25.566Z,34.34
2022-08-23T13:19:56.538Z,35.11
2022-08-23T13:22:27.207Z,35.57
2022-08-23T13:25:28.180Z,36.03
2022-08-23T13:27:59.140Z,35.78
2022-08-23T13:30:29.647Z,35.72
2022-08-23T13:33:13.934Z,35.94
2022-08-23T13:35:44.757Z,35.75
2022-08-23T13:38:23.885Z,34.97
2022-08-23T13:41:00.481Z,34.37
2022-08-23T13:43:32.874Z,34.89
2022-08-23T13:46:03.493Z,35.30
2022-08-23T13:48:34.725Z,35.71
2022-08-23T13:51:20.584Z,36.34
2022-08-23T13:53:50.121Z,36.38
2022-08-23T13:56:22.165Z,36.18
2022-08-23T13:58:56.404Z,36.37
2022-08-23T14:01:25.986Z,35.98
2022-08-23T14:03:55.657Z,36.26
2022-08-23T14:06:25.629Z,36.65
2022-08-23T14:08:55.297Z,36.50
2022-08-23T14:11:27.357Z,36.19
2022-08-23T14:13:56.821Z,36.31
2022-08-23T14:16:39.830Z,36.68
2022-08-23T14:19:54.748Z,36.64
2022-08-23T14:22:00.054Z,36.40
2022-08-23T14:24:29.931Z,35.73
2022-08-23T14:27:02.756Z,34.69
2022-08-23T14:29:32.299Z,34.19
2022-08-23T14:32:02.285Z,33.95
2022-08-23T14:34:32.237Z,33.86
2022-08-23T14:39:51.230Z,33.78
2022-08-23T14:42:24.349Z,33.68
2022-08-23T14:44:53.892Z,33.44
2022-08-23T14:47:23.329Z,33.38
2022-08-23T14:49:54.073Z,33.64
2022-08-23T14:52:23.758Z,34.22
2022-08-23T14:54:53.249Z,34.36
2022-08-23T14:57:25.354Z,34.26
2022-08-23T14:59:55.166Z,34.07
2022-08-23T15:02:25.771Z,34.32
2022-08-23T15:04:55.795Z,34.85
2022-08-23T15:07:25.276Z,34.95
2022-08-23T15:09:55.275Z,35.28
2022-08-23T15:15:22.039Z,35.09
2022-08-23T15:17:54.609Z,34.99
2022-08-23T15:20:24.593Z,35.04
2022-08-23T15:22:55.362Z,35.31
2022-08-23T15:25:25.820Z,35.55
2022-08-23T15:27:57.894Z,35.36
2022-08-23T15:30:27.465Z,35.39
2022-08-23T15:32:59.691Z,35.37
2022-08-23T15:35:29.824Z,35.50
2022-08-23T15:37:59.532Z,35.19
2022-08-23T15:40:29.023Z,34.45
2022-08-23T15:43:01.223Z,34.67
2022-08-23T15:45:31.306Z,34.66
2022-08-23T15:48:01.307Z,34.02
2022-08-23T15:50:32.173Z,33.81
2022-08-23T15:53:01.869Z,33.66
2022-08-23T15:55:32.467Z,33.36
2022-08-23T15:58:04.501Z,33.47
2022-08-23T16:00:33.964Z,33.21
2022-08-23T16:03:18.258Z,33.30
2022-08-23T16:05:50.595Z,33.82
2022-08-23T16:08:21.817Z,34.09
2022-08-23T16:10:51.405Z,34.44
2022-08-23T16:13:23.613Z,34.05
2022-08-23T16:15:53.071Z,33.61
2022-08-23T16:18:22.555Z,33.76
2022-08-23T16:20:54.404Z,34.12
2022-08-23T16:23:26.487Z,34.23
2022-08-23T16:26:00.860Z,33.42
2022-08-23T16:28:33.294Z,33.29
2022-08-23T16:31:02.805Z,33.81
2022-08-23T16:33:32.317Z,33.61
2022-08-23T16:36:01.758Z,33.64
2022-08-23T16:38:31.312Z,33.62
2022-08-23T16:41:00.788Z,33.37
2022-08-23T16:43:33.056Z,33.59
2022-08-23T16:46:02.572Z,33.41
2022-08-23T16:48:32.090Z,33.39
2022-08-23T16:51:01.535Z,33.08
2022-08-23T16:53:31.002Z,33.24
2022-08-23T16:56:00.625Z,33.14
2022-08-23T16:58:32.713Z,33.42
2022-08-23T17:01:02.158Z,33.44
2022-08-23T17:03:32.375Z,33.22
2022-08-23T17:06:02.099Z,33.53
2022-08-23T17:08:32.057Z,33.36
2022-08-23T17:11:03.301Z,33.46
2022-08-23T17:13:35.573Z,33.58
2022-08-23T17:16:06.376Z,32.96
2022-08-23T17:18:36.039Z,32.73
2022-08-23T17:21:05.525Z,33.12
2022-08-23T17:23:39.245Z,33.34
2022-08-23T17:26:10.360Z,33.46
2022-08-23T17:28:42.401Z,33.50
2022-08-23T17:31:11.848Z,33.38
2022-08-23T17:33:41.799Z,33.44
2022-08-23T17:36:21.313Z,33.38
2022-08-23T17:38:50.763Z,33.29
2022-08-23T17:41:20.232Z,32.74
2022-08-23T17:43:52.324Z,32.88
2022-08-23T17:46:23.181Z,32.94
2022-08-23T17:48:52.640Z,32.97
2022-08-23T17:51:22.134Z,33.02
2022-08-23T17:53:51.581Z,32.91
2022-08-23T17:56:21.072Z,32.79
2022-08-23T17:58:53.103Z,32.84
2022-08-23T18:01:22.670Z,32.91
2022-08-23T18:03:52.482Z,33.04
2022-08-23T18:06:22.108Z,33.08
2022-08-23T18:08:51.556Z,33.03
2022-08-23T18:11:21.023Z,32.97
2022-08-23T18:13:53.435Z,32.95
2022-08-23T18:16:23.000Z,32.74
2022-08-23T18:18:52.478Z,32.52
2022-08-23T18:21:21.911Z,32.33
2022-08-23T18:23:51.384Z,32.27
2022-08-23T18:26:33.103Z,32.18
2022-08-23T18:29:05.598Z,32.07
2022-08-23T18:31:35.128Z,32.02
2022-08-23T18:34:04.756Z,31.99
2022-08-23T18:36:34.225Z,31.92
2022-08-23T18:39:03.691Z,31.83
2022-08-23T18:41:33.134Z,31.74
2022-08-23T18:44:05.902Z,31.74
2022-08-23T18:46:35.404Z,31.64
2022-08-23T18:49:04.963Z,31.60
2022-08-23T18:51:34.459Z,31.53
2022-08-23T18:54:04.366Z,31.41
2022-08-23T18:56:35.336Z,31.30
2022-08-23T18:59:16.399Z,31.03
2022-08-23T19:01:48.570Z,30.84
2022-08-23T19:04:34.379Z,30.65
2022-08-23T19:07:15.798Z,30.73
2022-08-23T19:09:45.266Z,30.82
2022-08-23T19:12:19.486Z,30.75
2022-08-23T19:15:08.938Z,30.65
2022-08-23T19:17:42.705Z,30.57
2022-08-23T19:20:13.836Z,30.55
2022-08-23T19:22:50.399Z,30.49
2022-08-23T19:25:23.204Z,30.45
2022-08-23T19:27:53.159Z,30.45
2022-08-23T19:30:28.376Z,30.46
2022-08-23T19:32:58.731Z,30.49
2022-08-23T19:35:36.531Z,30.48
2022-08-23T19:38:08.987Z,30.49
2022-08-23T19:40:41.850Z,30.47
2022-08-23T19:43:12.149Z,30.46
2022-08-23T19:45:44.817Z,30.46
2022-08-23T19:48:16.309Z,30.45
2022-08-23T19:50:46.009Z,30.46
2022-08-23T19:53:15.441Z,30.42
2022-08-23T19:55:46.008Z,30.39
2022-08-23T19:58:18.154Z,30.34
2022-08-23T20:00:50.281Z,30.35
2022-08-23T20:03:22.801Z,30.31
2022-08-23T20:05:55.287Z,30.27
2022-08-23T20:08:25.340Z,30.20
2022-08-23T20:10:59.039Z,30.11
2022-08-23T20:13:29.278Z,30.07
2022-08-23T20:16:01.614Z,30.03
2022-08-23T20:18:32.117Z,29.93
2022-08-23T20:21:06.339Z,29.88
2022-08-23T20:23:48.459Z,29.83
2022-08-23T20:26:18.507Z,29.77
2022-08-23T20:28:50.007Z,29.80
2022-08-23T20:31:33.266Z,29.73
2022-08-23T20:34:02.798Z,29.63
2022-08-23T20:36:33.378Z,29.56
2022-08-23T20:39:03.339Z,29.46
2022-08-23T20:41:34.410Z,29.43
2022-08-23T20:44:03.921Z,29.40
2022-08-23T20:46:36.180Z,29.33
2022-08-23T20:49:05.786Z,29.27
2022-08-23T20:51:36.681Z,29.22
2022-08-23T20:54:06.765Z,29.18
2022-08-23T20:56:37.074Z,29.14
2022-08-23T20:59:06.684Z,29.11
2022-08-23T21:01:38.791Z,29.06
2022-08-23T21:04:08.599Z,29.02
2022-08-23T21:06:45.063Z,28.95
2022-08-23T21:09:17.015Z,28.91
2022-08-23T21:11:46.599Z,28.87
2022-08-23T21:14:17.225Z,28.84
2022-08-23T21:16:50.749Z,28.82
2022-08-23T21:19:20.200Z,28.77
2022-08-23T21:21:49.656Z,28.70
2022-08-23T21:24:19.113Z,28.65
2022-08-23T21:26:48.785Z,28.65
2022-08-23T21:29:18.228Z,28.65
2022-08-23T21:31:50.391Z,28.59
2022-08-23T21:34:19.859Z,28.52
2022-08-23T21:36:51.288Z,28.49
2022-08-23T21:39:20.991Z,28.44
2022-08-23T21:41:51.029Z,28.37
2022-08-23T21:44:22.208Z,28.35
2022-08-23T21:46:54.242Z,28.36
2022-08-23T21:49:23.685Z,28.29
2022-08-23T21:51:53.570Z,28.27
2022-08-23T21:54:24.548Z,28.20
2022-08-23T21:56:53.996Z,28.15
2022-08-23T21:59:23.433Z,28.08
2022-08-23T22:01:55.553Z,28.03
2022-08-23T22:04:25.029Z,27.99
2022-08-23T22:06:55.789Z,27.95
2022-08-23T22:09:27.927Z,27.94
2022-08-23T22:12:01.116Z,27.89
2022-08-23T22:14:31.993Z,27.85
2022-08-23T22:17:04.035Z,27.83
2022-08-23T22:19:33.492Z,27.81
2022-08-23T22:22:03.006Z,27.76
2022-08-23T22:24:32.446Z,27.71
2022-08-23T22:27:01.893Z,27.68
2022-08-23T22:29:31.591Z,27.62
2022-08-23T22:32:02.782Z,27.56
2022-08-23T22:34:34.811Z,27.54
2022-08-23T22:37:04.264Z,27.54
2022-08-23T22:39:33.704Z,27.52
2022-08-23T22:42:03.165Z,27.48
2022-08-23T22:44:33.824Z,27.44
2022-08-23T22:47:03.525Z,27.37
2022-08-23T22:49:35.561Z,27.31
2022-08-23T22:52:05.134Z,27.18
2022-08-23T22:54:34.619Z,27.13
2022-08-23T22:57:04.085Z,27.18
2022-08-23T22:59:33.634Z,27.08
2022-08-23T23:02:04.224Z,27.10
2022-08-23T23:04:42.116Z,27.08
2022-08-23T23:07:11.565Z,26.94
2022-08-23T23:09:41.280Z,26.81
2022-08-23T23:12:10.942Z,26.76
2022-08-23T23:14:40.389Z,26.76
2022-08-23T23:17:09.892Z,26.72
2022-08-23T23:19:54.416Z,26.68
2022-08-23T23:22:23.877Z,26.46
2022-08-23T23:24:53.304Z,26.55
2022-08-23T23:27:23.313Z,26.56
2022-08-23T23:29:52.771Z,26.58
2022-08-23T23:32:22.454Z,26.58
2022-08-23T23:34:54.579Z,26.62
2022-08-23T23:37:26.796Z,26.68
2022-08-23T23:39:56.262Z,26.61
2022-08-23T23:42:25.808Z,26.57
2022-08-23T23:44:55.301Z,26.47
2022-08-23T23:47:24.765Z,26.35
2022-08-23T23:49:56.970Z,26.20
2022-08-23T23:52:26.453Z,26.07
2022-08-23T23:54:55.895Z,26.15
2022-08-23T23:57:25.738Z,26.17
2022-08-23T23:59:56.873Z,26.21
